sensor_id;sensor_type;location;lat;lon;timestamp;temperature;humidity
1259;DHT22;619;51.472;6.628;2023-09-19T00:00:25;22.30;80.60
1259;DHT22;619;51.472;6.628;2023-09-19T00:02:57;22.30;80.70
1259;DHT22;619;51.472;6.628;2023-09-19T00:05:33;22.20;80.80
1259;DHT22;619;51.472;6.628;2023-09-19T00:08:00;22.20;80.70
1259;DHT22;619;51.472;6.628;2023-09-19T00:10:28;22.20;80.40
1259;DHT22;619;51.472;6.628;2023-09-19T00:12:59;22.20;80.50
1259;DHT22;619;51.472;6.628;2023-09-19T00:15:26;22.10;80.40
1259;DHT22;619;51.472;6.628;2023-09-19T00:17:55;22.10;80.40
1259;DHT22;619;51.472;6.628;2023-09-19T00:20:21;22.10;80.30
1259;DHT22;619;51.472;6.628;2023-09-19T00:22:53;22.10;81.10
1259;DHT22;619;51.472;6.628;2023-09-19T00:25:19;22.00;80.20
1259;DHT22;619;51.472;6.628;2023-09-19T00:27:45;22.00;80.10
1259;DHT22;619;51.472;6.628;2023-09-19T00:30:13;22.00;80.20
1259;DHT22;619;51.472;6.628;2023-09-19T00:32:46;22.00;80.30
1259;DHT22;619;51.472;6.628;2023-09-19T00:35:16;21.90;80.30
1259;DHT22;619;51.472;6.628;2023-09-19T00:37:42;21.90;80.40
1259;DHT22;619;51.472;6.628;2023-09-19T00:40:11;21.90;80.60
1259;DHT22;619;51.472;6.628;2023-09-19T00:42:38;21.80;80.40
1259;DHT22;619;51.472;6.628;2023-09-19T00:45:06;21.80;80.50
1259;DHT22;619;51.472;6.628;2023-09-19T00:47:35;21.80;80.70
1259;DHT22;619;51.472;6.628;2023-09-19T00:50:00;21.80;80.90
1259;DHT22;619;51.472;6.628;2023-09-19T00:52:31;21.70;80.70
1259;DHT22;619;51.472;6.628;2023-09-19T00:54:58;21.70;80.90
1259;DHT22;619;51.472;6.628;2023-09-19T00:57:25;21.70;81.10
1259;DHT22;619;51.472;6.628;2023-09-19T00:59:54;21.70;81.20
1259;DHT22;619;51.472;6.628;2023-09-19T01:02:23;21.60;81.10
1259;DHT22;619;51.472;6.628;2023-09-19T01:04:49;21.60;81.20
1259;DHT22;619;51.472;6.628;2023-09-19T01:07:19;21.60;81.20
1259;DHT22;619;51.472;6.628;2023-09-19T01:09:47;21.60;81.40
1259;DHT22;619;51.472;6.628;2023-09-19T01:12:17;21.60;81.50
1259;DHT22;619;51.472;6.628;2023-09-19T01:15:10;21.60;81.60
1259;DHT22;619;51.472;6.628;2023-09-19T01:17:48;21.60;81.80
1259;DHT22;619;51.472;6.628;2023-09-19T01:20:37;21.60;81.90
1259;DHT22;619;51.472;6.628;2023-09-19T01:23:09;21.50;81.70
1259;DHT22;619;51.472;6.628;2023-09-19T01:26:11;21.50;81.70
1259;DHT22;619;51.472;6.628;2023-09-19T01:31:49;21.40;81.60
1259;DHT22;619;51.472;6.628;2023-09-19T01:34:22;21.40;81.60
1259;DHT22;619;51.472;6.628;2023-09-19T01:36:47;21.40;81.30
1259;DHT22;619;51.472;6.628;2023-09-19T01:39:16;21.30;81.30
1259;DHT22;619;51.472;6.628;2023-09-19T01:42:18;21.30;81.20
1259;DHT22;619;51.472;6.628;2023-09-19T01:44:51;21.30;81.10
1259;DHT22;619;51.472;6.628;2023-09-19T01:47:33;21.30;81.20
1259;DHT22;619;51.472;6.628;2023-09-19T01:50:05;21.30;81.10
1259;DHT22;619;51.472;6.628;2023-09-19T01:52:38;21.30;81.80
1259;DHT22;619;51.472;6.628;2023-09-19T01:55:11;21.30;81.00
1259;DHT22;619;51.472;6.628;2023-09-19T02:00:21;21.20;80.80
1259;DHT22;619;51.472;6.628;2023-09-19T02:02:50;21.20;80.50
1259;DHT22;619;51.472;6.628;2023-09-19T02:05:26;21.10;80.30
1259;DHT22;619;51.472;6.628;2023-09-19T02:07:53;21.10;80.30
1259;DHT22;619;51.472;6.628;2023-09-19T02:10:19;21.10;80.20
1259;DHT22;619;51.472;6.628;2023-09-19T02:12:45;21.00;79.90
1259;DHT22;619;51.472;6.628;2023-09-19T02:15:11;21.00;79.80
1259;DHT22;619;51.472;6.628;2023-09-19T02:17:37;21.00;79.70
1259;DHT22;619;51.472;6.628;2023-09-19T02:20:03;21.00;79.60
1259;DHT22;619;51.472;6.628;2023-09-19T02:22:36;21.00;79.40
1259;DHT22;619;51.472;6.628;2023-09-19T02:25:02;20.90;79.40
1259;DHT22;619;51.472;6.628;2023-09-19T02:27:32;21.00;79.30
1259;DHT22;619;51.472;6.628;2023-09-19T02:30:00;20.90;79.30
1259;DHT22;619;51.472;6.628;2023-09-19T02:32:30;20.90;79.00
1259;DHT22;619;51.472;6.628;2023-09-19T02:34:57;20.90;78.80
1259;DHT22;619;51.472;6.628;2023-09-19T02:37:25;21.00;78.70
1259;DHT22;619;51.472;6.628;2023-09-19T02:39:53;21.00;78.70
1259;DHT22;619;51.472;6.628;2023-09-19T02:42:19;20.90;78.20
1259;DHT22;619;51.472;6.628;2023-09-19T02:44:45;21.00;78.20
1259;DHT22;619;51.472;6.628;2023-09-19T02:47:12;21.00;77.90
1259;DHT22;619;51.472;6.628;2023-09-19T02:49:38;21.00;77.60
1259;DHT22;619;51.472;6.628;2023-09-19T02:52:04;21.00;77.30
1259;DHT22;619;51.472;6.628;2023-09-19T02:54:30;21.00;77.20
1259;DHT22;619;51.472;6.628;2023-09-19T02:56:55;20.90;76.80
1259;DHT22;619;51.472;6.628;2023-09-19T02:59:21;20.90;76.70
1259;DHT22;619;51.472;6.628;2023-09-19T03:01:47;20.90;76.60
1259;DHT22;619;51.472;6.628;2023-09-19T03:04:14;20.90;76.40
1259;DHT22;619;51.472;6.628;2023-09-19T03:06:45;20.90;76.30
1259;DHT22;619;51.472;6.628;2023-09-19T03:09:11;20.90;76.00
1259;DHT22;619;51.472;6.628;2023-09-19T03:11:39;20.90;75.70
1259;DHT22;619;51.472;6.628;2023-09-19T03:14:08;20.90;75.80
1259;DHT22;619;51.472;6.628;2023-09-19T03:16:37;20.90;75.60
1259;DHT22;619;51.472;6.628;2023-09-19T03:19:05;20.90;75.70
1259;DHT22;619;51.472;6.628;2023-09-19T03:21:35;20.90;75.70
1259;DHT22;619;51.472;6.628;2023-09-19T03:24:01;20.90;75.70
1259;DHT22;619;51.472;6.628;2023-09-19T03:26:27;20.90;75.70
1259;DHT22;619;51.472;6.628;2023-09-19T03:28:53;20.90;75.70
1259;DHT22;619;51.472;6.628;2023-09-19T03:31:19;20.90;75.50
1259;DHT22;619;51.472;6.628;2023-09-19T03:33:47;20.80;75.40
1259;DHT22;619;51.472;6.628;2023-09-19T03:36:13;20.80;75.50
1259;DHT22;619;51.472;6.628;2023-09-19T03:38:46;20.80;75.70
1259;DHT22;619;51.472;6.628;2023-09-19T03:41:14;20.80;75.80
1259;DHT22;619;51.472;6.628;2023-09-19T03:43:42;20.80;75.80
1259;DHT22;619;51.472;6.628;2023-09-19T03:46:08;20.80;75.90
1259;DHT22;619;51.472;6.628;2023-09-19T03:48:34;20.80;76.00
1259;DHT22;619;51.472;6.628;2023-09-19T03:51:02;20.80;76.10
1259;DHT22;619;51.472;6.628;2023-09-19T03:53:28;20.80;76.20
1259;DHT22;619;51.472;6.628;2023-09-19T03:55:56;20.80;76.40
1259;DHT22;619;51.472;6.628;2023-09-19T03:58:22;20.80;76.40
1259;DHT22;619;51.472;6.628;2023-09-19T04:00:48;20.80;76.60
1259;DHT22;619;51.472;6.628;2023-09-19T04:03:15;20.80;76.90
1259;DHT22;619;51.472;6.628;2023-09-19T04:05:46;20.80;77.10
1259;DHT22;619;51.472;6.628;2023-09-19T04:08:13;20.80;77.30
1259;DHT22;619;51.472;6.628;2023-09-19T04:10:42;20.80;77.40
1259;DHT22;619;51.472;6.628;2023-09-19T04:13:13;20.70;77.50
1259;DHT22;619;51.472;6.628;2023-09-19T04:15:41;20.70;77.80
1259;DHT22;619;51.472;6.628;2023-09-19T04:18:06;20.70;78.00
1259;DHT22;619;51.472;6.628;2023-09-19T04:20:34;20.70;78.20
1259;DHT22;619;51.472;6.628;2023-09-19T04:23:02;20.70;78.60
1259;DHT22;619;51.472;6.628;2023-09-19T04:25:29;20.60;78.80
1259;DHT22;619;51.472;6.628;2023-09-19T04:27:59;20.60;79.10
1259;DHT22;619;51.472;6.628;2023-09-19T04:30:29;20.60;79.30
1259;DHT22;619;51.472;6.628;2023-09-19T04:32:54;20.70;79.60
1259;DHT22;619;51.472;6.628;2023-09-19T04:35:20;20.60;79.70
1259;DHT22;619;51.472;6.628;2023-09-19T04:37:46;20.60;79.90
1259;DHT22;619;51.472;6.628;2023-09-19T04:40:14;20.60;80.10
1259;DHT22;619;51.472;6.628;2023-09-19T04:42:42;20.60;80.20
1259;DHT22;619;51.472;6.628;2023-09-19T04:45:08;20.60;80.20
1259;DHT22;619;51.472;6.628;2023-09-19T04:47:37;20.60;80.30
1259;DHT22;619;51.472;6.628;2023-09-19T04:50:09;20.60;80.30
1259;DHT22;619;51.472;6.628;2023-09-19T04:52:41;20.60;80.40
1259;DHT22;619;51.472;6.628;2023-09-19T04:55:13;20.60;80.40
1259;DHT22;619;51.472;6.628;2023-09-19T04:57:47;20.60;80.60
1259;DHT22;619;51.472;6.628;2023-09-19T05:00:17;20.70;80.60
1259;DHT22;619;51.472;6.628;2023-09-19T05:02:44;20.70;80.40
1259;DHT22;619;51.472;6.628;2023-09-19T05:05:13;20.70;80.30
1259;DHT22;619;51.472;6.628;2023-09-19T05:07:41;20.70;80.30
1259;DHT22;619;51.472;6.628;2023-09-19T05:10:08;20.70;80.30
1259;DHT22;619;51.472;6.628;2023-09-19T05:12:34;20.70;80.40
1259;DHT22;619;51.472;6.628;2023-09-19T05:15:04;20.70;80.30
1259;DHT22;619;51.472;6.628;2023-09-19T05:17:33;20.70;80.30
1259;DHT22;619;51.472;6.628;2023-09-19T05:20:02;20.60;81.00
1259;DHT22;619;51.472;6.628;2023-09-19T05:22:31;20.60;80.30
1259;DHT22;619;51.472;6.628;2023-09-19T05:24:58;20.60;80.20
1259;DHT22;619;51.472;6.628;2023-09-19T05:27:26;20.60;80.20
1259;DHT22;619;51.472;6.628;2023-09-19T05:29:54;20.70;80.30
1259;DHT22;619;51.472;6.628;2023-09-19T05:32:21;20.70;80.20
1259;DHT22;619;51.472;6.628;2023-09-19T05:34:51;20.70;80.00
1259;DHT22;619;51.472;6.628;2023-09-19T05:37:24;20.80;80.00
1259;DHT22;619;51.472;6.628;2023-09-19T05:39:51;20.80;79.70
1259;DHT22;619;51.472;6.628;2023-09-19T05:42:17;20.80;79.60
1259;DHT22;619;51.472;6.628;2023-09-19T05:44:42;20.80;79.50
1259;DHT22;619;51.472;6.628;2023-09-19T05:47:08;20.80;79.50
1259;DHT22;619;51.472;6.628;2023-09-19T05:49:35;20.90;79.40
1259;DHT22;619;51.472;6.628;2023-09-19T05:52:07;20.90;79.20
1259;DHT22;619;51.472;6.628;2023-09-19T05:54:33;20.90;79.20
1259;DHT22;619;51.472;6.628;2023-09-19T05:57:03;21.00;79.20
1259;DHT22;619;51.472;6.628;2023-09-19T05:59:28;21.00;79.00
1259;DHT22;619;51.472;6.628;2023-09-19T06:01:54;21.10;78.80
1259;DHT22;619;51.472;6.628;2023-09-19T06:04:20;21.10;78.70
1259;DHT22;619;51.472;6.628;2023-09-19T06:06:46;21.10;78.60
1259;DHT22;619;51.472;6.628;2023-09-19T06:09:14;21.20;78.50
1259;DHT22;619;51.472;6.628;2023-09-19T06:11:42;21.20;78.30
1259;DHT22;619;51.472;6.628;2023-09-19T06:14:10;21.20;78.00
1259;DHT22;619;51.472;6.628;2023-09-19T06:16:36;21.30;77.90
1259;DHT22;619;51.472;6.628;2023-09-19T06:19:03;21.40;77.70
1259;DHT22;619;51.472;6.628;2023-09-19T06:21:32;21.50;77.80
1259;DHT22;619;51.472;6.628;2023-09-19T06:24:00;21.50;77.50
1259;DHT22;619;51.472;6.628;2023-09-19T06:26:28;21.60;77.10
1259;DHT22;619;51.472;6.628;2023-09-19T06:28:54;21.60;77.00
1259;DHT22;619;51.472;6.628;2023-09-19T06:31:21;21.60;76.90
1259;DHT22;619;51.472;6.628;2023-09-19T06:33:50;21.60;77.00
1259;DHT22;619;51.472;6.628;2023-09-19T06:36:18;21.70;76.90
1259;DHT22;619;51.472;6.628;2023-09-19T06:38:45;21.70;76.80
1259;DHT22;619;51.472;6.628;2023-09-19T06:41:16;21.70;76.70
1259;DHT22;619;51.472;6.628;2023-09-19T06:43:42;21.70;76.70
1259;DHT22;619;51.472;6.628;2023-09-19T06:46:09;21.70;76.70
1259;DHT22;619;51.472;6.628;2023-09-19T06:48:38;21.70;76.70
1259;DHT22;619;51.472;6.628;2023-09-19T06:51:03;21.80;76.90
1259;DHT22;619;51.472;6.628;2023-09-19T06:53:34;21.80;77.00
1259;DHT22;619;51.472;6.628;2023-09-19T06:56:02;21.80;77.10
1259;DHT22;619;51.472;6.628;2023-09-19T06:58:28;21.80;77.20
1259;DHT22;619;51.472;6.628;2023-09-19T07:00:56;21.90;77.30
1259;DHT22;619;51.472;6.628;2023-09-19T07:03:22;21.90;77.20
1259;DHT22;619;51.472;6.628;2023-09-19T07:05:54;22.00;77.50
1259;DHT22;619;51.472;6.628;2023-09-19T07:08:22;22.10;77.30
1259;DHT22;619;51.472;6.628;2023-09-19T07:10:47;22.10;77.20
1259;DHT22;619;51.472;6.628;2023-09-19T07:13:22;22.20;77.00
1259;DHT22;619;51.472;6.628;2023-09-19T07:15:51;22.20;77.00
1259;DHT22;619;51.472;6.628;2023-09-19T07:18:19;22.20;76.90
1259;DHT22;619;51.472;6.628;2023-09-19T07:20:47;22.30;76.70
1259;DHT22;619;51.472;6.628;2023-09-19T07:23:21;22.30;76.70
1259;DHT22;619;51.472;6.628;2023-09-19T07:25:51;22.40;76.90
1259;DHT22;619;51.472;6.628;2023-09-19T07:28:17;22.40;76.60
1259;DHT22;619;51.472;6.628;2023-09-19T07:30:43;22.40;76.50
1259;DHT22;619;51.472;6.628;2023-09-19T07:33:09;22.40;76.20
1259;DHT22;619;51.472;6.628;2023-09-19T07:35:38;22.40;76.40
1259;DHT22;619;51.472;6.628;2023-09-19T07:38:09;22.40;76.30
1259;DHT22;619;51.472;6.628;2023-09-19T07:40:39;22.40;76.60
1259;DHT22;619;51.472;6.628;2023-09-19T07:43:05;22.50;76.50
1259;DHT22;619;51.472;6.628;2023-09-19T07:45:32;22.40;76.20
1259;DHT22;619;51.472;6.628;2023-09-19T07:48:00;22.40;76.40
1259;DHT22;619;51.472;6.628;2023-09-19T07:50:29;22.40;76.50
1259;DHT22;619;51.472;6.628;2023-09-19T07:52:55;22.50;76.70
1259;DHT22;619;51.472;6.628;2023-09-19T07:55:22;22.50;76.60
1259;DHT22;619;51.472;6.628;2023-09-19T07:57:51;22.60;76.40
1259;DHT22;619;51.472;6.628;2023-09-19T08:00:16;22.60;76.10
1259;DHT22;619;51.472;6.628;2023-09-19T08:02:43;22.70;76.20
1259;DHT22;619;51.472;6.628;2023-09-19T08:05:13;22.70;76.30
1259;DHT22;619;51.472;6.628;2023-09-19T08:07:42;22.70;76.10
1259;DHT22;619;51.472;6.628;2023-09-19T08:10:08;22.80;76.10
1259;DHT22;619;51.472;6.628;2023-09-19T08:12:39;22.80;75.80
1259;DHT22;619;51.472;6.628;2023-09-19T08:15:15;22.90;75.60
1259;DHT22;619;51.472;6.628;2023-09-19T08:17:43;22.90;75.50
1259;DHT22;619;51.472;6.628;2023-09-19T08:20:09;22.90;75.30
1259;DHT22;619;51.472;6.628;2023-09-19T08:22:52;23.00;75.70
1259;DHT22;619;51.472;6.628;2023-09-19T08:25:20;23.10;75.40
1259;DHT22;619;51.472;6.628;2023-09-19T08:27:48;23.20;75.10
1259;DHT22;619;51.472;6.628;2023-09-19T08:30:16;23.20;75.10
1259;DHT22;619;51.472;6.628;2023-09-19T08:32:44;23.30;75.00
1259;DHT22;619;51.472;6.628;2023-09-19T08:35:11;23.40;74.60
1259;DHT22;619;51.472;6.628;2023-09-19T08:37:44;23.50;74.10
1259;DHT22;619;51.472;6.628;2023-09-19T08:40:15;23.60;73.90
1259;DHT22;619;51.472;6.628;2023-09-19T08:42:56;23.70;74.00
1259;DHT22;619;51.472;6.628;2023-09-19T08:45:23;23.80;73.50
1259;DHT22;619;51.472;6.628;2023-09-19T08:53:51;23.90;72.60
1259;DHT22;619;51.472;6.628;2023-09-19T08:56:20;24.00;73.00
1259;DHT22;619;51.472;6.628;2023-09-19T08:59:00;24.10;72.30
1259;DHT22;619;51.472;6.628;2023-09-19T09:01:28;24.20;72.00
1259;DHT22;619;51.472;6.628;2023-09-19T09:03:55;24.30;72.00
1259;DHT22;619;51.472;6.628;2023-09-19T09:06:25;24.40;72.10
1259;DHT22;619;51.472;6.628;2023-09-19T09:08:51;24.40;71.30
1259;DHT22;619;51.472;6.628;2023-09-19T09:11:20;24.50;72.20
1259;DHT22;619;51.472;6.628;2023-09-19T09:13:47;24.60;71.10
1259;DHT22;619;51.472;6.628;2023-09-19T09:16:14;24.70;70.30
1259;DHT22;619;51.472;6.628;2023-09-19T09:18:45;24.70;69.90
1259;DHT22;619;51.472;6.628;2023-09-19T09:21:15;24.70;69.80
1259;DHT22;619;51.472;6.628;2023-09-19T09:23:41;24.70;69.30
1259;DHT22;619;51.472;6.628;2023-09-19T09:26:06;24.80;69.80
1259;DHT22;619;51.472;6.628;2023-09-19T09:28:33;24.70;69.80
1259;DHT22;619;51.472;6.628;2023-09-19T09:31:01;24.70;69.10
1259;DHT22;619;51.472;6.628;2023-09-19T09:33:34;24.70;69.40
1259;DHT22;619;51.472;6.628;2023-09-19T09:36:00;24.70;69.90
1259;DHT22;619;51.472;6.628;2023-09-19T09:38:43;24.70;69.40
1259;DHT22;619;51.472;6.628;2023-09-19T09:41:09;24.70;69.00
1259;DHT22;619;51.472;6.628;2023-09-19T09:43:41;24.70;69.70
1259;DHT22;619;51.472;6.628;2023-09-19T09:46:17;24.70;70.50
1259;DHT22;619;51.472;6.628;2023-09-19T09:51:43;24.80;69.70
1259;DHT22;619;51.472;6.628;2023-09-19T09:54:13;24.80;69.30
1259;DHT22;619;51.472;6.628;2023-09-19T09:59:57;24.90;69.70
1259;DHT22;619;51.472;6.628;2023-09-19T10:02:41;25.00;69.20
1259;DHT22;619;51.472;6.628;2023-09-19T10:05:16;25.10;69.50
1259;DHT22;619;51.472;6.628;2023-09-19T10:07:55;25.20;68.90
1259;DHT22;619;51.472;6.628;2023-09-19T10:10:34;25.40;68.50
1259;DHT22;619;51.472;6.628;2023-09-19T10:13:25;25.60;68.80
1259;DHT22;619;51.472;6.628;2023-09-19T10:15:55;25.90;68.20
1259;DHT22;619;51.472;6.628;2023-09-19T10:18:25;26.10;66.90
1259;DHT22;619;51.472;6.628;2023-09-19T10:20:53;26.40;66.50
1259;DHT22;619;51.472;6.628;2023-09-19T10:23:22;26.60;65.60
1259;DHT22;619;51.472;6.628;2023-09-19T10:25:55;26.70;64.40
1259;DHT22;619;51.472;6.628;2023-09-19T10:28:23;26.70;63.70
1259;DHT22;619;51.472;6.628;2023-09-19T10:30:53;26.70;63.70
1259;DHT22;619;51.472;6.628;2023-09-19T10:33:23;26.80;64.10
1259;DHT22;619;51.472;6.628;2023-09-19T10:35:53;26.90;64.00
1259;DHT22;619;51.472;6.628;2023-09-19T10:38:27;26.90;63.10
1259;DHT22;619;51.472;6.628;2023-09-19T10:40:59;27.00;61.90
1259;DHT22;619;51.472;6.628;2023-09-19T10:43:30;26.90;60.70
1259;DHT22;619;51.472;6.628;2023-09-19T10:46:02;26.90;61.30
1259;DHT22;619;51.472;6.628;2023-09-19T10:48:29;26.90;61.20
1259;DHT22;619;51.472;6.628;2023-09-19T10:51:15;26.90;61.20
1259;DHT22;619;51.472;6.628;2023-09-19T10:56:23;26.90;60.70
1259;DHT22;619;51.472;6.628;2023-09-19T10:58:52;26.80;60.90
1259;DHT22;619;51.472;6.628;2023-09-19T11:01:42;26.70;61.30
1259;DHT22;619;51.472;6.628;2023-09-19T11:04:29;26.60;62.00
1259;DHT22;619;51.472;6.628;2023-09-19T11:07:15;26.60;62.40
1259;DHT22;619;51.472;6.628;2023-09-19T11:09:55;26.60;62.10
1259;DHT22;619;51.472;6.628;2023-09-19T11:15:01;26.80;62.50
1259;DHT22;619;51.472;6.628;2023-09-19T11:17:43;26.90;61.00
1259;DHT22;619;51.472;6.628;2023-09-19T11:33:21;27.10;60.80
1259;DHT22;619;51.472;6.628;2023-09-19T11:36:10;27.30;60.30
1259;DHT22;619;51.472;6.628;2023-09-19T11:46:32;27.50;59.00
1259;DHT22;619;51.472;6.628;2023-09-19T11:49:09;27.50;58.60
1259;DHT22;619;51.472;6.628;2023-09-19T11:51:55;27.60;59.00
1259;DHT22;619;51.472;6.628;2023-09-19T11:54:21;27.80;59.70
1259;DHT22;619;51.472;6.628;2023-09-19T11:56:54;27.80;58.60
1259;DHT22;619;51.472;6.628;2023-09-19T11:59:26;27.90;58.60
1259;DHT22;619;51.472;6.628;2023-09-19T12:01:56;28.00;57.90
1259;DHT22;619;51.472;6.628;2023-09-19T12:04:38;28.00;56.90
1259;DHT22;619;51.472;6.628;2023-09-19T12:09:43;28.10;56.60
1259;DHT22;619;51.472;6.628;2023-09-19T12:12:25;28.10;56.70
1259;DHT22;619;51.472;6.628;2023-09-19T12:14:58;28.20;56.50
1259;DHT22;619;51.472;6.628;2023-09-19T12:17:34;28.20;55.90
1259;DHT22;619;51.472;6.628;2023-09-19T12:20:01;28.10;55.70
1259;DHT22;619;51.472;6.628;2023-09-19T12:25:09;28.20;55.90
1259;DHT22;619;51.472;6.628;2023-09-19T12:27:43;28.10;55.90
1259;DHT22;619;51.472;6.628;2023-09-19T12:30:10;28.00;55.90
1259;DHT22;619;51.472;6.628;2023-09-19T12:32:39;27.90;56.20
1259;DHT22;619;51.472;6.628;2023-09-19T12:35:06;27.90;56.70
1259;DHT22;619;51.472;6.628;2023-09-19T12:37:45;27.90;56.30
1259;DHT22;619;51.472;6.628;2023-09-19T12:40:21;27.90;56.40
1259;DHT22;619;51.472;6.628;2023-09-19T12:42:56;28.00;56.50
1259;DHT22;619;51.472;6.628;2023-09-19T12:45:22;28.10;56.40
1259;DHT22;619;51.472;6.628;2023-09-19T12:48:22;28.20;56.20
1259;DHT22;619;51.472;6.628;2023-09-19T12:51:10;28.30;55.90
1259;DHT22;619;51.472;6.628;2023-09-19T12:53:56;28.40;55.60
1259;DHT22;619;51.472;6.628;2023-09-19T12:56:22;28.40;55.60
1259;DHT22;619;51.472;6.628;2023-09-19T13:01:22;28.40;55.10
1259;DHT22;619;51.472;6.628;2023-09-19T13:04:21;28.30;55.10
1259;DHT22;619;51.472;6.628;2023-09-19T13:06:55;28.20;55.60
1259;DHT22;619;51.472;6.628;2023-09-19T13:09:26;28.20;55.70
1259;DHT22;619;51.472;6.628;2023-09-19T13:12:01;28.30;56.70
1259;DHT22;619;51.472;6.628;2023-09-19T13:14:32;28.40;55.80
1259;DHT22;619;51.472;6.628;2023-09-19T13:19:52;28.60;56.10
1259;DHT22;619;51.472;6.628;2023-09-19T13:27:44;28.60;54.80
1259;DHT22;619;51.472;6.628;2023-09-19T13:30:11;28.50;55.30
1259;DHT22;619;51.472;6.628;2023-09-19T13:32:40;28.50;55.60
1259;DHT22;619;51.472;6.628;2023-09-19T13:35:09;28.40;55.80
1259;DHT22;619;51.472;6.628;2023-09-19T13:37:38;28.20;56.40
1259;DHT22;619;51.472;6.628;2023-09-19T13:40:11;28.10;56.90
1259;DHT22;619;51.472;6.628;2023-09-19T13:42:37;28.10;57.20
1259;DHT22;619;51.472;6.628;2023-09-19T13:45:06;27.90;57.00
1259;DHT22;619;51.472;6.628;2023-09-19T13:47:37;27.90;57.30
1259;DHT22;619;51.472;6.628;2023-09-19T13:50:04;27.80;57.10
1259;DHT22;619;51.472;6.628;2023-09-19T13:52:33;27.80;57.40
1259;DHT22;619;51.472;6.628;2023-09-19T13:54:59;27.80;57.60
1259;DHT22;619;51.472;6.628;2023-09-19T13:57:29;27.70;57.90
1259;DHT22;619;51.472;6.628;2023-09-19T13:59:55;27.60;58.10
1259;DHT22;619;51.472;6.628;2023-09-19T14:02:23;27.50;58.10
1259;DHT22;619;51.472;6.628;2023-09-19T14:04:49;27.40;58.40
1259;DHT22;619;51.472;6.628;2023-09-19T14:07:15;27.30;58.50
1259;DHT22;619;51.472;6.628;2023-09-19T14:09:44;27.20;58.80
1259;DHT22;619;51.472;6.628;2023-09-19T14:12:10;27.10;59.30
1259;DHT22;619;51.472;6.628;2023-09-19T14:14:36;27.10;59.50
1259;DHT22;619;51.472;6.628;2023-09-19T14:17:05;26.90;59.40
1259;DHT22;619;51.472;6.628;2023-09-19T14:19:34;26.80;59.70
1259;DHT22;619;51.472;6.628;2023-09-19T14:22:02;26.80;59.80
1259;DHT22;619;51.472;6.628;2023-09-19T14:24:33;26.70;59.70
1259;DHT22;619;51.472;6.628;2023-09-19T14:26:58;26.70;59.80
1259;DHT22;619;51.472;6.628;2023-09-19T14:29:27;26.80;60.20
1259;DHT22;619;51.472;6.628;2023-09-19T14:31:55;26.80;60.40
1259;DHT22;619;51.472;6.628;2023-09-19T14:34:23;26.80;60.70
1259;DHT22;619;51.472;6.628;2023-09-19T14:36:51;26.80;60.40
1259;DHT22;619;51.472;6.628;2023-09-19T14:39:19;26.80;60.10
1259;DHT22;619;51.472;6.628;2023-09-19T14:41:45;26.90;60.50
1259;DHT22;619;51.472;6.628;2023-09-19T14:44:15;26.80;60.40
1259;DHT22;619;51.472;6.628;2023-09-19T14:46:47;26.80;60.40
1259;DHT22;619;51.472;6.628;2023-09-19T14:49:15;26.80;60.70
1259;DHT22;619;51.472;6.628;2023-09-19T14:51:44;26.80;60.70
1259;DHT22;619;51.472;6.628;2023-09-19T14:54:10;26.80;59.90
1259;DHT22;619;51.472;6.628;2023-09-19T14:56:40;26.70;59.90
1259;DHT22;619;51.472;6.628;2023-09-19T14:59:06;26.60;60.40
1259;DHT22;619;51.472;6.628;2023-09-19T15:01:32;26.60;60.70
1259;DHT22;619;51.472;6.628;2023-09-19T15:04:00;26.40;60.60
1259;DHT22;619;51.472;6.628;2023-09-19T15:06:28;26.30;60.60
1259;DHT22;619;51.472;6.628;2023-09-19T15:08:56;26.30;61.20
1259;DHT22;619;51.472;6.628;2023-09-19T15:11:26;26.30;61.20
1259;DHT22;619;51.472;6.628;2023-09-19T15:13:54;26.20;61.10
1259;DHT22;619;51.472;6.628;2023-09-19T15:16:26;26.20;61.50
1259;DHT22;619;51.472;6.628;2023-09-19T15:18:54;26.20;61.30
1259;DHT22;619;51.472;6.628;2023-09-19T15:21:23;26.20;61.20
1259;DHT22;619;51.472;6.628;2023-09-19T15:23:49;26.20;61.40
1259;DHT22;619;51.472;6.628;2023-09-19T15:26:15;26.20;61.20
1259;DHT22;619;51.472;6.628;2023-09-19T15:28:47;26.30;61.70
1259;DHT22;619;51.472;6.628;2023-09-19T15:31:16;26.40;61.30
1259;DHT22;619;51.472;6.628;2023-09-19T15:33:44;26.60;61.50
1259;DHT22;619;51.472;6.628;2023-09-19T15:36:11;26.70;61.30
1259;DHT22;619;51.472;6.628;2023-09-19T15:41:30;27.10;60.30
1259;DHT22;619;51.472;6.628;2023-09-19T15:43:59;27.30;60.00
1259;DHT22;619;51.472;6.628;2023-09-19T15:46:30;27.40;59.50
1259;DHT22;619;51.472;6.628;2023-09-19T15:48:59;27.50;59.30
1259;DHT22;619;51.472;6.628;2023-09-19T15:51:26;27.50;59.20
1259;DHT22;619;51.472;6.628;2023-09-19T15:53:57;27.50;59.20
1259;DHT22;619;51.472;6.628;2023-09-19T15:56:23;27.40;59.40
1259;DHT22;619;51.472;6.628;2023-09-19T15:58:51;27.30;59.60
1259;DHT22;619;51.472;6.628;2023-09-19T16:01:21;27.20;59.20
1259;DHT22;619;51.472;6.628;2023-09-19T16:03:48;27.10;59.70
1259;DHT22;619;51.472;6.628;2023-09-19T16:06:18;27.00;59.80
1259;DHT22;619;51.472;6.628;2023-09-19T16:08:46;27.00;60.30
1259;DHT22;619;51.472;6.628;2023-09-19T16:11:12;26.90;60.30
1259;DHT22;619;51.472;6.628;2023-09-19T16:13:39;26.90;60.70
1259;DHT22;619;51.472;6.628;2023-09-19T16:16:09;26.90;60.00
1259;DHT22;619;51.472;6.628;2023-09-19T16:18:39;26.80;60.70
1259;DHT22;619;51.472;6.628;2023-09-19T16:21:07;26.80;60.50
1259;DHT22;619;51.472;6.628;2023-09-19T16:23:33;26.70;60.80
1259;DHT22;619;51.472;6.628;2023-09-19T16:26:09;26.70;61.00
1259;DHT22;619;51.472;6.628;2023-09-19T16:28:38;26.70;60.90
1259;DHT22;619;51.472;6.628;2023-09-19T16:31:05;26.60;60.70
1259;DHT22;619;51.472;6.628;2023-09-19T16:33:35;26.60;60.50
1259;DHT22;619;51.472;6.628;2023-09-19T16:36:11;26.60;61.00
1259;DHT22;619;51.472;6.628;2023-09-19T16:38:38;26.50;60.80
1259;DHT22;619;51.472;6.628;2023-09-19T16:41:04;26.50;61.20
1259;DHT22;619;51.472;6.628;2023-09-19T16:43:31;26.40;61.30
1259;DHT22;619;51.472;6.628;2023-09-19T16:46:02;26.40;61.60
1259;DHT22;619;51.472;6.628;2023-09-19T16:48:28;26.30;61.70
1259;DHT22;619;51.472;6.628;2023-09-19T16:51:03;26.20;61.70
1259;DHT22;619;51.472;6.628;2023-09-19T16:53:30;26.10;61.80
1259;DHT22;619;51.472;6.628;2023-09-19T16:56:01;26.10;62.40
1259;DHT22;619;51.472;6.628;2023-09-19T16:58:27;26.10;62.50
1259;DHT22;619;51.472;6.628;2023-09-19T17:00:52;26.00;62.50
1259;DHT22;619;51.472;6.628;2023-09-19T17:03:18;25.90;62.70
1259;DHT22;619;51.472;6.628;2023-09-19T17:05:44;25.90;63.70
1259;DHT22;619;51.472;6.628;2023-09-19T17:08:12;25.90;63.00
1259;DHT22;619;51.472;6.628;2023-09-19T17:10:38;25.90;63.00
1259;DHT22;619;51.472;6.628;2023-09-19T17:13:09;25.80;63.00
1259;DHT22;619;51.472;6.628;2023-09-19T17:15:37;25.80;63.20
1259;DHT22;619;51.472;6.628;2023-09-19T17:18:05;25.60;63.00
1259;DHT22;619;51.472;6.628;2023-09-19T17:20:33;25.60;63.40
1259;DHT22;619;51.472;6.628;2023-09-19T17:22:59;25.60;63.60
1259;DHT22;619;51.472;6.628;2023-09-19T17:25:29;25.50;63.70
1259;DHT22;619;51.472;6.628;2023-09-19T17:27:56;25.50;64.00
1259;DHT22;619;51.472;6.628;2023-09-19T17:30:22;25.50;64.00
1259;DHT22;619;51.472;6.628;2023-09-19T17:32:48;25.40;64.00
1259;DHT22;619;51.472;6.628;2023-09-19T17:35:14;25.40;64.10